sensor_id;sensor_type;location;lat;lon;timestamp;P1;durP1;ratioP1;P2;durP2;ratioP2
9280;SDS011;4679;47.966;7.958;2023-01-28T00:00:21;8.77;;;5.77;;
9280;SDS011;4679;47.966;7.958;2023-01-28T00:02:23;9.00;;;5.77;;
9280;SDS011;4679;47.966;7.958;2023-01-28T00:04:24;7.23;;;5.00;;
9280;SDS011;4679;47.966;7.958;2023-01-28T00:06:27;9.57;;;5.73;;
9280;SDS011;4679;47.966;7.958;2023-01-28T00:08:29;6.63;;;5.37;;
9280;SDS011;4679;47.966;7.958;2023-01-28T00:10:32;7.03;;;4.63;;
9280;SDS011;4679;47.966;7.958;2023-01-28T00:12:34;5.93;;;4.57;;
9280;SDS011;4679;47.966;7.958;2023-01-28T00:14:36;7.00;;;5.63;;
9280;SDS011;4679;47.966;7.958;2023-01-28T00:16:37;8.83;;;5.77;;
9280;SDS011;4679;47.966;7.958;2023-01-28T00:18:39;7.73;;;5.30;;
9280;SDS011;4679;47.966;7.958;2023-01-28T00:20:41;8.50;;;4.73;;
9280;SDS011;4679;47.966;7.958;2023-01-28T00:22:46;6.27;;;4.03;;
9280;SDS011;4679;47.966;7.958;2023-01-28T00:24:48;7.77;;;4.87;;
9280;SDS011;4679;47.966;7.958;2023-01-28T00:26:50;8.47;;;4.57;;
9280;SDS011;4679;47.966;7.958;2023-01-28T00:28:51;6.37;;;4.47;;
9280;SDS011;4679;47.966;7.958;2023-01-28T00:30:53;7.43;;;4.70;;
9280;SDS011;4679;47.966;7.958;2023-01-28T00:32:55;8.43;;;5.27;;
9280;SDS011;4679;47.966;7.958;2023-01-28T00:34:57;7.50;;;5.03;;
9280;SDS011;4679;47.966;7.958;2023-01-28T00:36:58;10.37;;;5.07;;
9280;SDS011;4679;47.966;7.958;2023-01-28T00:39:01;6.90;;;4.80;;
9280;SDS011;4679;47.966;7.958;2023-01-28T00:41:06;9.03;;;5.67;;
9280;SDS011;4679;47.966;7.958;2023-01-28T00:43:09;7.77;;;5.40;;
9280;SDS011;4679;47.966;7.958;2023-01-28T00:45:11;8.00;;;5.50;;
9280;SDS011;4679;47.966;7.958;2023-01-28T00:47:12;7.27;;;5.13;;
9280;SDS011;4679;47.966;7.958;2023-01-28T00:49:14;8.20;;;5.70;;
9280;SDS011;4679;47.966;7.958;2023-01-28T00:51:16;8.27;;;5.13;;
9280;SDS011;4679;47.966;7.958;2023-01-28T00:53:19;8.83;;;5.03;;
9280;SDS011;4679;47.966;7.958;2023-01-28T00:55:22;8.63;;;5.87;;
9280;SDS011;4679;47.966;7.958;2023-01-28T00:57:24;9.87;;;5.83;;
9280;SDS011;4679;47.966;7.958;2023-01-28T00:59:26;8.47;;;4.70;;
9280;SDS011;4679;47.966;7.958;2023-01-28T01:01:28;6.93;;;5.47;;
9280;SDS011;4679;47.966;7.958;2023-01-28T01:03:29;8.37;;;5.57;;
9280;SDS011;4679;47.966;7.958;2023-01-28T01:05:31;7.00;;;5.17;;
9280;SDS011;4679;47.966;7.958;2023-01-28T01:07:33;7.93;;;5.67;;
9280;SDS011;4679;47.966;7.958;2023-01-28T01:09:40;8.63;;;4.27;;
9280;SDS011;4679;47.966;7.958;2023-01-28T01:11:43;7.17;;;4.60;;
9280;SDS011;4679;47.966;7.958;2023-01-28T01:13:48;7.70;;;5.53;;
9280;SDS011;4679;47.966;7.958;2023-01-28T01:15:59;5.80;;;4.90;;
9280;SDS011;4679;47.966;7.958;2023-01-28T01:18:02;10.63;;;5.33;;
9280;SDS011;4679;47.966;7.958;2023-01-28T01:20:04;7.20;;;5.17;;
9280;SDS011;4679;47.966;7.958;2023-01-28T01:22:07;8.17;;;4.93;;
9280;SDS011;4679;47.966;7.958;2023-01-28T01:24:09;6.80;;;5.07;;
9280;SDS011;4679;47.966;7.958;2023-01-28T01:26:11;8.97;;;5.67;;
9280;SDS011;4679;47.966;7.958;2023-01-28T01:28:15;9.37;;;5.37;;
9280;SDS011;4679;47.966;7.958;2023-01-28T01:30:17;10.00;;;5.37;;
9280;SDS011;4679;47.966;7.958;2023-01-28T01:32:20;8.50;;;5.30;;
9280;SDS011;4679;47.966;7.958;2023-01-28T01:34:22;10.07;;;5.00;;
9280;SDS011;4679;47.966;7.958;2023-01-28T01:36:24;8.83;;;5.40;;
9280;SDS011;4679;47.966;7.958;2023-01-28T01:38:26;7.20;;;5.50;;
9280;SDS011;4679;47.966;7.958;2023-01-28T01:40:28;8.50;;;5.83;;
9280;SDS011;4679;47.966;7.958;2023-01-28T01:42:30;11.00;;;5.83;;
9280;SDS011;4679;47.966;7.958;2023-01-28T01:44:46;8.90;;;6.63;;
9280;SDS011;4679;47.966;7.958;2023-01-28T01:46:55;9.23;;;5.70;;
9280;SDS011;4679;47.966;7.958;2023-01-28T01:48:57;13.60;;;6.33;;
9280;SDS011;4679;47.966;7.958;2023-01-28T01:51:08;8.97;;;6.47;;
9280;SDS011;4679;47.966;7.958;2023-01-28T01:53:13;10.30;;;6.70;;
9280;SDS011;4679;47.966;7.958;2023-01-28T01:55:18;9.87;;;5.97;;
9280;SDS011;4679;47.966;7.958;2023-01-28T01:57:26;10.40;;;5.70;;
9280;SDS011;4679;47.966;7.958;2023-01-28T01:59:31;10.13;;;6.43;;
9280;SDS011;4679;47.966;7.958;2023-01-28T02:01:35;9.03;;;6.43;;
9280;SDS011;4679;47.966;7.958;2023-01-28T02:03:37;8.40;;;6.63;;
9280;SDS011;4679;47.966;7.958;2023-01-28T02:05:44;8.97;;;5.70;;
9280;SDS011;4679;47.966;7.958;2023-01-28T02:07:46;10.17;;;5.83;;
9280;SDS011;4679;47.966;7.958;2023-01-28T02:09:49;11.37;;;7.20;;
9280;SDS011;4679;47.966;7.958;2023-01-28T02:11:51;9.87;;;6.47;;
9280;SDS011;4679;47.966;7.958;2023-01-28T02:13:57;12.37;;;6.90;;
9280;SDS011;4679;47.966;7.958;2023-01-28T02:16:01;10.23;;;6.80;;
9280;SDS011;4679;47.966;7.958;2023-01-28T02:18:06;9.93;;;6.60;;
9280;SDS011;4679;47.966;7.958;2023-01-28T02:20:08;9.97;;;6.23;;
9280;SDS011;4679;47.966;7.958;2023-01-28T02:22:21;7.40;;;5.53;;
9280;SDS011;4679;47.966;7.958;2023-01-28T02:24:44;12.23;;;6.10;;
9280;SDS011;4679;47.966;7.958;2023-01-28T02:27:13;6.70;;;5.33;;
9280;SDS011;4679;47.966;7.958;2023-01-28T02:29:24;6.53;;;4.77;;
9280;SDS011;4679;47.966;7.958;2023-01-28T02:31:32;10.47;;;6.27;;
9280;SDS011;4679;47.966;7.958;2023-01-28T02:33:38;8.70;;;6.43;;
9280;SDS011;4679;47.966;7.958;2023-01-28T02:35:46;9.60;;;7.13;;
9280;SDS011;4679;47.966;7.958;2023-01-28T02:37:50;8.17;;;5.93;;
9280;SDS011;4679;47.966;7.958;2023-01-28T02:39:56;10.70;;;6.63;;
9280;SDS011;4679;47.966;7.958;2023-01-28T02:42:03;11.33;;;6.23;;
9280;SDS011;4679;47.966;7.958;2023-01-28T02:44:07;9.07;;;6.37;;
9280;SDS011;4679;47.966;7.958;2023-01-28T02:46:12;8.50;;;5.60;;
9280;SDS011;4679;47.966;7.958;2023-01-28T02:48:36;9.53;;;6.23;;
9280;SDS011;4679;47.966;7.958;2023-01-28T02:50:38;9.73;;;6.47;;
9280;SDS011;4679;47.966;7.958;2023-01-28T02:52:55;9.20;;;6.23;;
9280;SDS011;4679;47.966;7.958;2023-01-28T02:55:28;8.03;;;5.07;;
9280;SDS011;4679;47.966;7.958;2023-01-28T02:57:36;9.13;;;5.23;;
9280;SDS011;4679;47.966;7.958;2023-01-28T02:59:44;8.27;;;5.40;;
9280;SDS011;4679;47.966;7.958;2023-01-28T03:01:54;7.47;;;5.37;;
9280;SDS011;4679;47.966;7.958;2023-01-28T03:04:02;10.33;;;6.33;;
9280;SDS011;4679;47.966;7.958;2023-01-28T03:06:08;9.33;;;5.97;;
9280;SDS011;4679;47.966;7.958;2023-01-28T03:08:15;6.33;;;4.97;;
9280;SDS011;4679;47.966;7.958;2023-01-28T03:10:35;7.17;;;4.73;;
9280;SDS011;4679;47.966;7.958;2023-01-28T03:12:38;7.40;;;5.13;;
9280;SDS011;4679;47.966;7.958;2023-01-28T03:15:01;8.43;;;4.77;;
9280;SDS011;4679;47.966;7.958;2023-01-28T03:17:26;6.90;;;4.50;;
9280;SDS011;4679;47.966;7.958;2023-01-28T03:19:51;6.87;;;4.40;;
9280;SDS011;4679;47.966;7.958;2023-01-28T03:22:11;7.47;;;4.37;;
9280;SDS011;4679;47.966;7.958;2023-01-28T03:24:31;6.80;;;5.07;;
9280;SDS011;4679;47.966;7.958;2023-01-28T03:26:55;7.13;;;4.63;;
9280;SDS011;4679;47.966;7.958;2023-01-28T03:29:19;8.90;;;5.13;;
9280;SDS011;4679;47.966;7.958;2023-01-28T03:31:41;7.60;;;5.37;;
9280;SDS011;4679;47.966;7.958;2023-01-28T03:34:02;6.43;;;4.70;;
9280;SDS011;4679;47.966;7.958;2023-01-28T03:36:22;6.80;;;5.03;;
9280;SDS011;4679;47.966;7.958;2023-01-28T03:38:41;7.70;;;5.47;;
9280;SDS011;4679;47.966;7.958;2023-01-28T03:40:48;8.33;;;5.33;;
9280;SDS011;4679;47.966;7.958;2023-01-28T03:42:51;7.33;;;4.50;;
9280;SDS011;4679;47.966;7.958;2023-01-28T03:44:55;6.40;;;4.57;;
9280;SDS011;4679;47.966;7.958;2023-01-28T03:46:57;9.20;;;5.40;;
9280;SDS011;4679;47.966;7.958;2023-01-28T03:48:58;7.37;;;5.07;;
9280;SDS011;4679;47.966;7.958;2023-01-28T03:51:01;7.90;;;5.53;;
9280;SDS011;4679;47.966;7.958;2023-01-28T03:53:03;7.50;;;4.97;;
9280;SDS011;4679;47.966;7.958;2023-01-28T03:55:13;9.93;;;4.97;;
9280;SDS011;4679;47.966;7.958;2023-01-28T03:57:14;7.37;;;5.13;;
9280;SDS011;4679;47.966;7.958;2023-01-28T03:59:17;7.90;;;5.43;;
9280;SDS011;4679;47.966;7.958;2023-01-28T04:01:19;6.47;;;5.67;;
9280;SDS011;4679;47.966;7.958;2023-01-28T04:03:21;7.57;;;5.40;;
9280;SDS011;4679;47.966;7.958;2023-01-28T04:05:23;7.87;;;5.23;;
9280;SDS011;4679;47.966;7.958;2023-01-28T04:07:26;6.23;;;4.43;;
9280;SDS011;4679;47.966;7.958;2023-01-28T04:09:28;5.80;;;4.73;;
9280;SDS011;4679;47.966;7.958;2023-01-28T04:11:29;5.47;;;4.67;;
9280;SDS011;4679;47.966;7.958;2023-01-28T04:13:31;4.60;;;4.03;;
9280;SDS011;4679;47.966;7.958;2023-01-28T04:15:33;7.47;;;4.53;;
9280;SDS011;4679;47.966;7.958;2023-01-28T04:17:35;7.70;;;4.73;;
9280;SDS011;4679;47.966;7.958;2023-01-28T04:19:37;7.10;;;4.40;;
9280;SDS011;4679;47.966;7.958;2023-01-28T04:21:39;5.83;;;5.07;;
9280;SDS011;4679;47.966;7.958;2023-01-28T04:23:42;7.47;;;5.23;;
9280;SDS011;4679;47.966;7.958;2023-01-28T04:25:44;8.03;;;4.33;;
9280;SDS011;4679;47.966;7.958;2023-01-28T04:27:46;7.07;;;4.23;;
9280;SDS011;4679;47.966;7.958;2023-01-28T04:29:47;6.83;;;4.90;;
9280;SDS011;4679;47.966;7.958;2023-01-28T04:31:49;6.70;;;4.70;;
9280;SDS011;4679;47.966;7.958;2023-01-28T04:33:50;7.70;;;4.53;;
9280;SDS011;4679;47.966;7.958;2023-01-28T04:35:52;6.10;;;4.37;;
9280;SDS011;4679;47.966;7.958;2023-01-28T04:37:54;6.63;;;4.00;;
9280;SDS011;4679;47.966;7.958;2023-01-28T04:39:57;5.77;;;4.50;;
9280;SDS011;4679;47.966;7.958;2023-01-28T04:41:58;5.87;;;4.60;;
9280;SDS011;4679;47.966;7.958;2023-01-28T04:44:00;6.30;;;4.13;;
9280;SDS011;4679;47.966;7.958;2023-01-28T04:46:02;4.40;;;4.00;;
9280;SDS011;4679;47.966;7.958;2023-01-28T04:48:04;5.20;;;3.80;;
9280;SDS011;4679;47.966;7.958;2023-01-28T04:50:06;4.20;;;3.80;;
9280;SDS011;4679;47.966;7.958;2023-01-28T04:52:09;7.03;;;4.63;;
9280;SDS011;4679;47.966;7.958;2023-01-28T04:54:10;9.13;;;6.50;;
9280;SDS011;4679;47.966;7.958;2023-01-28T04:56:13;10.30;;;6.07;;
9280;SDS011;4679;47.966;7.958;2023-01-28T04:58:15;9.83;;;6.97;;
9280;SDS011;4679;47.966;7.958;2023-01-28T05:00:17;8.93;;;6.03;;
9280;SDS011;4679;47.966;7.958;2023-01-28T05:02:19;10.83;;;6.63;;
9280;SDS011;4679;47.966;7.958;2023-01-28T05:04:21;9.33;;;6.17;;
9280;SDS011;4679;47.966;7.958;2023-01-28T05:06:23;7.10;;;5.63;;
9280;SDS011;4679;47.966;7.958;2023-01-28T05:08:24;9.17;;;6.30;;
9280;SDS011;4679;47.966;7.958;2023-01-28T05:10:26;10.40;;;5.93;;
9280;SDS011;4679;47.966;7.958;2023-01-28T05:12:29;10.10;;;6.77;;
9280;SDS011;4679;47.966;7.958;2023-01-28T05:14:32;7.83;;;5.90;;
9280;SDS011;4679;47.966;7.958;2023-01-28T05:16:33;6.67;;;5.23;;
9280;SDS011;4679;47.966;7.958;2023-01-28T05:18:35;5.63;;;5.00;;
9280;SDS011;4679;47.966;7.958;2023-01-28T05:20:37;9.40;;;5.03;;
9280;SDS011;4679;47.966;7.958;2023-01-28T05:22:38;7.13;;;5.03;;
9280;SDS011;4679;47.966;7.958;2023-01-28T05:24:40;7.33;;;5.37;;
9280;SDS011;4679;47.966;7.958;2023-01-28T05:26:42;6.17;;;5.20;;
9280;SDS011;4679;47.966;7.958;2023-01-28T05:28:45;5.57;;;4.07;;
9280;SDS011;4679;47.966;7.958;2023-01-28T05:30:47;9.80;;;6.03;;
9280;SDS011;4679;47.966;7.958;2023-01-28T05:32:48;6.63;;;5.37;;
9280;SDS011;4679;47.966;7.958;2023-01-28T05:34:54;5.40;;;4.03;;
9280;SDS011;4679;47.966;7.958;2023-01-28T05:36:56;4.10;;;3.23;;
9280;SDS011;4679;47.966;7.958;2023-01-28T05:38:57;3.77;;;3.33;;
9280;SDS011;4679;47.966;7.958;2023-01-28T05:40:59;3.40;;;2.93;;
9280;SDS011;4679;47.966;7.958;2023-01-28T05:43:01;5.57;;;3.27;;
9280;SDS011;4679;47.966;7.958;2023-01-28T05:45:04;5.17;;;3.50;;
9280;SDS011;4679;47.966;7.958;2023-01-28T05:47:06;3.43;;;2.90;;
9280;SDS011;4679;47.966;7.958;2023-01-28T05:49:08;5.17;;;2.90;;
9280;SDS011;4679;47.966;7.958;2023-01-28T05:51:12;3.77;;;2.90;;
9280;SDS011;4679;47.966;7.958;2023-01-28T05:53:14;4.67;;;3.37;;
9280;SDS011;4679;47.966;7.958;2023-01-28T05:55:15;3.87;;;2.73;;
9280;SDS011;4679;47.966;7.958;2023-01-28T05:57:17;4.90;;;3.40;;
9280;SDS011;4679;47.966;7.958;2023-01-28T05:59:19;4.53;;;2.53;;
9280;SDS011;4679;47.966;7.958;2023-01-28T06:01:22;2.90;;;2.60;;
9280;SDS011;4679;47.966;7.958;2023-01-28T06:03:24;4.13;;;2.93;;
9280;SDS011;4679;47.966;7.958;2023-01-28T06:05:25;3.10;;;2.73;;
9280;SDS011;4679;47.966;7.958;2023-01-28T06:07:27;3.67;;;2.33;;
9280;SDS011;4679;47.966;7.958;2023-01-28T06:09:29;4.60;;;3.27;;
9280;SDS011;4679;47.966;7.958;2023-01-28T06:11:30;4.00;;;2.47;;
9280;SDS011;4679;47.966;7.958;2023-01-28T06:13:32;4.97;;;2.60;;
9280;SDS011;4679;47.966;7.958;2023-01-28T06:15:34;3.63;;;2.93;;
9280;SDS011;4679;47.966;7.958;2023-01-28T06:17:37;3.63;;;2.83;;
9280;SDS011;4679;47.966;7.958;2023-01-28T06:19:39;4.00;;;2.13;;
9280;SDS011;4679;47.966;7.958;2023-01-28T06:21:40;4.43;;;2.27;;
9280;SDS011;4679;47.966;7.958;2023-01-28T06:23:43;3.47;;;2.10;;
9280;SDS011;4679;47.966;7.958;2023-01-28T06:25:45;3.07;;;2.27;;
9280;SDS011;4679;47.966;7.958;2023-01-28T06:27:46;3.33;;;2.50;;
9280;SDS011;4679;47.966;7.958;2023-01-28T06:29:48;2.40;;;2.00;;
9280;SDS011;4679;47.966;7.958;2023-01-28T06:31:49;3.53;;;2.50;;
9280;SDS011;4679;47.966;7.958;2023-01-28T06:33:52;2.87;;;2.40;;
9280;SDS011;4679;47.966;7.958;2023-01-28T06:35:54;2.83;;;2.03;;
9280;SDS011;4679;47.966;7.958;2023-01-28T06:37:56;3.57;;;2.07;;
9280;SDS011;4679;47.966;7.958;2023-01-28T06:39:57;2.80;;;2.40;;
9280;SDS011;4679;47.966;7.958;2023-01-28T06:41:59;2.73;;;2.10;;
9280;SDS011;4679;47.966;7.958;2023-01-28T06:44:01;3.20;;;1.70;;
9280;SDS011;4679;47.966;7.958;2023-01-28T06:46:02;2.30;;;1.80;;
9280;SDS011;4679;47.966;7.958;2023-01-28T06:48:04;3.20;;;2.10;;
9280;SDS011;4679;47.966;7.958;2023-01-28T06:50:08;2.50;;;1.80;;
9280;SDS011;4679;47.966;7.958;2023-01-28T06:52:11;2.63;;;1.87;;
9280;SDS011;4679;47.966;7.958;2023-01-28T06:54:12;1.80;;;1.40;;
9280;SDS011;4679;47.966;7.958;2023-01-28T06:56:14;2.93;;;1.70;;
9280;SDS011;4679;47.966;7.958;2023-01-28T06:58:16;2.10;;;1.60;;
9280;SDS011;4679;47.966;7.958;2023-01-28T07:00:18;2.10;;;1.50;;
9280;SDS011;4679;47.966;7.958;2023-01-28T07:02:20;4.30;;;1.70;;
9280;SDS011;4679;47.966;7.958;2023-01-28T07:04:21;1.73;;;1.50;;
9280;SDS011;4679;47.966;7.958;2023-01-28T07:06:25;2.07;;;1.53;;
9280;SDS011;4679;47.966;7.958;2023-01-28T07:08:26;1.77;;;1.57;;
9280;SDS011;4679;47.966;7.958;2023-01-28T07:10:28;1.70;;;1.60;;
9280;SDS011;4679;47.966;7.958;2023-01-28T07:12:30;1.43;;;1.33;;
9280;SDS011;4679;47.966;7.958;2023-01-28T07:14:31;1.97;;;1.57;;
9280;SDS011;4679;47.966;7.958;2023-01-28T07:16:33;1.43;;;1.33;;
9280;SDS011;4679;47.966;7.958;2023-01-28T07:18:35;2.33;;;1.43;;
9280;SDS011;4679;47.966;7.958;2023-01-28T07:20:36;2.20;;;1.30;;
9280;SDS011;4679;47.966;7.958;2023-01-28T07:22:40;1.73;;;1.30;;
9280;SDS011;4679;47.966;7.958;2023-01-28T07:24:43;1.67;;;1.20;;
9280;SDS011;4679;47.966;7.958;2023-01-28T07:26:46;1.40;;;1.20;;
9280;SDS011;4679;47.966;7.958;2023-01-28T07:28:48;1.27;;;1.10;;
9280;SDS011;4679;47.966;7.958;2023-01-28T07:30:49;1.60;;;1.47;;
9280;SDS011;4679;47.966;7.958;2023-01-28T07:32:52;1.70;;;1.10;;
9280;SDS011;4679;47.966;7.958;2023-01-28T07:34:54;1.60;;;1.20;;
9280;SDS011;4679;47.966;7.958;2023-01-28T07:36:56;1.37;;;1.07;;
9280;SDS011;4679;47.966;7.958;2023-01-28T07:38:59;1.73;;;1.30;;
9280;SDS011;4679;47.966;7.958;2023-01-28T07:41:01;1.53;;;1.43;;
9280;SDS011;4679;47.966;7.958;2023-01-28T07:43:02;1.87;;;1.63;;
9280;SDS011;4679;47.966;7.958;2023-01-28T07:45:06;2.00;;;1.17;;
9280;SDS011;4679;47.966;7.958;2023-01-28T07:47:08;1.93;;;1.33;;
9280;SDS011;4679;47.966;7.958;2023-01-28T07:49:10;1.50;;;1.40;;
9280;SDS011;4679;47.966;7.958;2023-01-28T07:51:12;2.47;;;1.13;;
9280;SDS011;4679;47.966;7.958;2023-01-28T07:53:14;2.33;;;1.30;;
9280;SDS011;4679;47.966;7.958;2023-01-28T07:55:17;2.53;;;1.70;;
9280;SDS011;4679;47.966;7.958;2023-01-28T07:57:18;4.73;;;1.67;;
9280;SDS011;4679;47.966;7.958;2023-01-28T07:59:22;1.40;;;1.30;;
9280;SDS011;4679;47.966;7.958;2023-01-28T08:01:24;1.10;;;1.00;;
9280;SDS011;4679;47.966;7.958;2023-01-28T08:03:26;1.40;;;1.30;;
9280;SDS011;4679;47.966;7.958;2023-01-28T08:05:30;1.57;;;1.20;;
9280;SDS011;4679;47.966;7.958;2023-01-28T08:07:40;1.30;;;1.20;;
9280;SDS011;4679;47.966;7.958;2023-01-28T08:09:41;1.90;;;1.30;;
9280;SDS011;4679;47.966;7.958;2023-01-28T08:11:44;1.77;;;1.20;;
9280;SDS011;4679;47.966;7.958;2023-01-28T08:13:46;2.23;;;1.60;;
9280;SDS011;4679;47.966;7.958;2023-01-28T08:15:49;2.07;;;1.30;;
9280;SDS011;4679;47.966;7.958;2023-01-28T08:17:56;2.40;;;1.63;;
9280;SDS011;4679;47.966;7.958;2023-01-28T08:19:58;2.00;;;1.50;;
9280;SDS011;4679;47.966;7.958;2023-01-28T08:22:00;2.40;;;1.70;;
9280;SDS011;4679;47.966;7.958;2023-01-28T08:24:02;4.00;;;2.20;;
9280;SDS011;4679;47.966;7.958;2023-01-28T08:26:04;1.93;;;1.60;;
9280;SDS011;4679;47.966;7.958;2023-01-28T08:28:08;1.70;;;1.60;;
9280;SDS011;4679;47.966;7.958;2023-01-28T08:30:10;1.77;;;1.67;;
9280;SDS011;4679;47.966;7.958;2023-01-28T08:32:12;1.77;;;1.67;;
9280;SDS011;4679;47.966;7.958;2023-01-28T08:34:14;1.40;;;1.30;;
9280;SDS011;4679;47.966;7.958;2023-01-28T08:36:16;2.80;;;1.77;;
9280;SDS011;4679;47.966;7.958;2023-01-28T08:38:17;1.70;;;1.60;;
9280;SDS011;4679;47.966;7.958;2023-01-28T08:40:19;1.53;;;1.20;;
9280;SDS011;4679;47.966;7.958;2023-01-28T08:42:21;5.83;;;1.40;;
9280;SDS011;4679;47.966;7.958;2023-01-28T08:44:24;1.60;;;1.10;;
9280;SDS011;4679;47.966;7.958;2023-01-28T08:46:26;1.30;;;1.20;;
9280;SDS011;4679;47.966;7.958;2023-01-28T08:48:27;2.17;;;1.17;;
9280;SDS011;4679;47.966;7.958;2023-01-28T08:50:30;1.37;;;1.20;;
9280;SDS011;4679;47.966;7.958;2023-01-28T08:52:33;1.73;;;1.20;;
9280;SDS011;4679;47.966;7.958;2023-01-28T08:54:34;1.10;;;1.00;;
9280;SDS011;4679;47.966;7.958;2023-01-28T08:56:36;1.30;;;1.00;;
9280;SDS011;4679;47.966;7.958;2023-01-28T08:58:38;2.53;;;1.20;;
9280;SDS011;4679;47.966;7.958;2023-01-28T09:00:41;2.60;;;1.30;;
9280;SDS011;4679;47.966;7.958;2023-01-28T09:02:45;1.63;;;0.90;;
9280;SDS011;4679;47.966;7.958;2023-01-28T09:04:46;1.20;;;1.10;;
9280;SDS011;4679;47.966;7.958;2023-01-28T09:06:48;1.27;;;1.10;;
9280;SDS011;4679;47.966;7.958;2023-01-28T09:08:50;1.90;;;1.10;;
9280;SDS011;4679;47.966;7.958;2023-01-28T09:10:53;1.10;;;1.00;;
9280;SDS011;4679;47.966;7.958;2023-01-28T09:12:55;1.20;;;1.00;;
9280;SDS011;4679;47.966;7.958;2023-01-28T09:14:57;1.60;;;1.20;;
9280;SDS011;4679;47.966;7.958;2023-01-28T09:17:00;1.27;;;1.17;;
9280;SDS011;4679;47.966;7.958;2023-01-28T09:19:02;0.70;;;0.70;;
9280;SDS011;4679;47.966;7.958;2023-01-28T09:21:04;3.93;;;1.03;;
9280;SDS011;4679;47.966;7.958;2023-01-28T09:23:06;1.10;;;1.00;;
9280;SDS011;4679;47.966;7.958;2023-01-28T09:25:08;1.10;;;0.90;;
9280;SDS011;4679;47.966;7.958;2023-01-28T09:27:10;1.00;;;0.90;;
9280;SDS011;4679;47.966;7.958;2023-01-28T09:29:12;1.10;;;0.87;;
9280;SDS011;4679;47.966;7.958;2023-01-28T09:31:13;1.33;;;1.20;;
9280;SDS011;4679;47.966;7.958;2023-01-28T09:33:16;1.27;;;1.03;;
9280;SDS011;4679;47.966;7.958;2023-01-28T09:35:18;1.17;;;1.07;;
9280;SDS011;4679;47.966;7.958;2023-01-28T09:37:20;0.77;;;0.70;;
9280;SDS011;4679;47.966;7.958;2023-01-28T09:39:21;1.53;;;1.20;;
9280;SDS011;4679;47.966;7.958;2023-01-28T09:41:25;1.30;;;1.20;;
9280;SDS011;4679;47.966;7.958;2023-01-28T09:43:36;0.80;;;0.80;;
9280;SDS011;4679;47.966;7.958;2023-01-28T09:45:49;1.27;;;1.03;;
9280;SDS011;4679;47.966;7.958;2023-01-28T09:47:53;1.10;;;0.87;;
9280;SDS011;4679;47.966;7.958;2023-01-28T09:50:00;1.03;;;0.93;;
9280;SDS011;4679;47.966;7.958;2023-01-28T09:52:07;2.63;;;1.10;;
9280;SDS011;4679;47.966;7.958;2023-01-28T09:54:14;1.30;;;1.00;;
9280;SDS011;4679;47.966;7.958;2023-01-28T09:56:33;2.00;;;1.03;;
9280;SDS011;4679;47.966;7.958;2023-01-28T09:58:40;1.27;;;1.13;;
9280;SDS011;4679;47.966;7.958;2023-01-28T10:00:45;1.40;;;1.30;;
9280;SDS011;4679;47.966;7.958;2023-01-28T10:02:59;1.00;;;0.90;;
9280;SDS011;4679;47.966;7.958;2023-01-28T10:05:15;1.40;;;1.00;;
9280;SDS011;4679;47.966;7.958;2023-01-28T10:07:24;1.27;;;0.90;;
9280;SDS011;4679;47.966;7.958;2023-01-28T10:09:36;1.33;;;1.07;;
9280;SDS011;4679;47.966;7.958;2023-01-28T10:11:52;1.30;;;1.20;;
9280;SDS011;4679;47.966;7.958;2023-01-28T10:14:03;1.80;;;0.90;;
9280;SDS011;4679;47.966;7.958;2023-01-28T10:16:13;1.20;;;1.10;;
9280;SDS011;4679;47.966;7.958;2023-01-28T10:18:30;1.57;;;1.10;;
9280;SDS011;4679;47.966;7.958;2023-01-28T10:20:37;1.33;;;0.97;;
9280;SDS011;4679;47.966;7.958;2023-01-28T10:22:44;1.20;;;1.10;;
9280;SDS011;4679;47.966;7.958;2023-01-28T10:24:52;1.03;;;0.93;;
9280;SDS011;4679;47.966;7.958;2023-01-28T10:27:00;1.20;;;1.10;;
9280;SDS011;4679;47.966;7.958;2023-01-28T10:29:08;1.00;;;0.90;;
9280;SDS011;4679;47.966;7.958;2023-01-28T10:31:13;1.50;;;1.00;;
9280;SDS011;4679;47.966;7.958;2023-01-28T10:33:17;1.40;;;1.30;;
9280;SDS011;4679;47.966;7.958;2023-01-28T10:35:21;1.60;;;1.30;;
9280;SDS011;4679;47.966;7.958;2023-01-28T10:37:24;1.80;;;1.30;;
9280;SDS011;4679;47.966;7.958;2023-01-28T10:39:27;1.10;;;1.00;;
9280;SDS011;4679;47.966;7.958;2023-01-28T10:41:29;0.87;;;0.87;;
9280;SDS011;4679;47.966;7.958;2023-01-28T10:43:33;2.80;;;2.10;;
9280;SDS011;4679;47.966;7.958;2023-01-28T10:45:39;1.23;;;1.00;;
9280;SDS011;4679;47.966;7.958;2023-01-28T10:47:55;1.33;;;1.00;;
9280;SDS011;4679;47.966;7.958;2023-01-28T10:50:03;1.10;;;1.00;;
9280;SDS011;4679;47.966;7.958;2023-01-28T10:52:09;1.00;;;0.83;;
9280;SDS011;4679;47.966;7.958;2023-01-28T10:54:20;1.13;;;1.03;;
9280;SDS011;4679;47.966;7.958;2023-01-28T10:56:23;1.30;;;1.20;;
9280;SDS011;4679;47.966;7.958;2023-01-28T10:58:27;1.97;;;0.90;;
9280;SDS011;4679;47.966;7.958;2023-01-28T11:00:32;1.30;;;1.20;;
9280;SDS011;4679;47.966;7.958;2023-01-28T11:02:36;1.83;;;1.47;;
9280;SDS011;4679;47.966;7.958;2023-01-28T11:04:37;1.50;;;1.37;;
9280;SDS011;4679;47.966;7.958;2023-01-28T11:06:39;1.77;;;1.40;;
9280;SDS011;4679;47.966;7.958;2023-01-28T11:08:41;1.50;;;1.30;;
9280;SDS011;4679;47.966;7.958;2023-01-28T11:10:46;1.50;;;1.37;;
9280;SDS011;4679;47.966;7.958;2023-01-28T11:12:53;1.63;;;1.53;;
9280;SDS011;4679;47.966;7.958;2023-01-28T11:14:56;3.37;;;2.27;;
9280;SDS011;4679;47.966;7.958;2023-01-28T11:16:59;2.20;;;1.73;;
9280;SDS011;4679;47.966;7.958;2023-01-28T11:19:02;2.10;;;1.30;;
9280;SDS011;4679;47.966;7.958;2023-01-28T11:21:06;1.83;;;1.60;;
9280;SDS011;4679;47.966;7.958;2023-01-28T11:23:20;1.73;;;1.43;;
9280;SDS011;4679;47.966;7.958;2023-01-28T11:25:26;1.43;;;1.33;;
9280;SDS011;4679;47.966;7.958;2023-01-28T11:27:31;1.60;;;1.47;;
9280;SDS011;4679;47.966;7.958;2023-01-28T11:29:33;1.90;;;1.70;;
9280;SDS011;4679;47.966;7.958;2023-01-28T11:31:41;1.93;;;1.37;;
9280;SDS011;4679;47.966;7.958;2023-01-28T11:33:45;2.53;;;1.60;;
9280;SDS011;4679;47.966;7.958;2023-01-28T11:35:54;1.30;;;1.20;;
9280;SDS011;4679;47.966;7.958;2023-01-28T11:37:58;1.47;;;1.20;;
9280;SDS011;4679;47.966;7.958;2023-01-28T11:40:01;1.50;;;1.40;;
9280;SDS011;4679;47.966;7.958;2023-01-28T11:42:16;1.73;;;1.20;;
9280;SDS011;4679;47.966;7.958;2023-01-28T11:44:22;1.47;;;1.37;;
9280;SDS011;4679;47.966;7.958;2023-01-28T11:46:33;1.60;;;1.20;;
9280;SDS011;4679;47.966;7.958;2023-01-28T11:48:49;1.50;;;1.20;;
9280;SDS011;4679;47.966;7.958;2023-01-28T11:51:01;1.80;;;1.60;;
9280;SDS011;4679;47.966;7.958;2023-01-28T11:53:11;3.63;;;1.47;;
9280;SDS011;4679;47.966;7.958;2023-01-28T11:55:28;1.10;;;1.00;;
9280;SDS011;4679;47.966;7.958;2023-01-28T11:57:41;1.50;;;1.20;;
9280;SDS011;4679;47.966;7.958;2023-01-28T12:00:08;2.53;;;1.27;;
9280;SDS011;4679;47.966;7.958;2023-01-28T12:02:45;1.23;;;0.97;;
9280;SDS011;4679;47.966;7.958;2023-01-28T12:04:55;1.57;;;1.30;;
9280;SDS011;4679;47.966;7.958;2023-01-28T12:07:13;1.27;;;1.17;;
9280;SDS011;4679;47.966;7.958;2023-01-28T12:09:24;1.87;;;1.10;;
9280;SDS011;4679;47.966;7.958;2023-01-28T12:11:32;1.40;;;1.30;;
9280;SDS011;4679;47.966;7.958;2023-01-28T12:14:04;1.73;;;1.30;;
9280;SDS011;4679;47.966;7.958;2023-01-28T12:16:30;1.40;;;1.30;;
9280;SDS011;4679;47.966;7.958;2023-01-28T12:18:58;2.73;;;1.27;;
9280;SDS011;4679;47.966;7.958;2023-01-28T12:21:09;1.63;;;1.20;;
9280;SDS011;4679;47.966;7.958;2023-01-28T12:23:23;2.33;;;1.47;;
9280;SDS011;4679;47.966;7.958;2023-01-28T12:25:43;1.80;;;1.43;;
9280;SDS011;4679;47.966;7.958;2023-01-28T12:27:59;2.50;;;1.80;;
9280;SDS011;4679;47.966;7.958;2023-01-28T12:30:15;1.77;;;1.47;;
9280;SDS011;4679;47.966;7.958;2023-01-28T12:32:30;2.10;;;1.40;;
9280;SDS011;4679;47.966;7.958;2023-01-28T12:34:51;2.47;;;1.70;;
9280;SDS011;4679;47.966;7.958;2023-01-28T12:37:17;2.33;;;2.00;;
9280;SDS011;4679;47.966;7.958;2023-01-28T12:39:33;2.83;;;1.53;;
9280;SDS011;4679;47.966;7.958;2023-01-28T12:41:45;1.53;;;1.17;;
9280;SDS011;4679;47.966;7.958;2023-01-28T12:43:51;2.27;;;1.60;;
9280;SDS011;4679;47.966;7.958;2023-01-28T12:45:59;4.03;;;1.60;;
9280;SDS011;4679;47.966;7.958;2023-01-28T12:48:08;2.53;;;1.50;;
9280;SDS011;4679;47.966;7.958;2023-01-28T12:50:15;1.63;;;1.30;;
9280;SDS011;4679;47.966;7.958;2023-01-28T12:52:21;1.67;;;1.30;;
9280;SDS011;4679;47.966;7.958;2023-01-28T12:54:26;2.67;;;1.70;;
9280;SDS011;4679;47.966;7.958;2023-01-28T12:56:34;2.27;;;1.30;;
9280;SDS011;4679;47.966;7.958;2023-01-28T12:58:42;1.93;;;1.70;;